Kaneville, IL (60144)

03:29 CDT le 26 octobre 2014 (GMT -0500)
Columbine Square | Change Station
CLOSE
Current Station
Stations météorologiques personnelles
Location: Elburn, IL
Altitude: 843 ft
Stations météo à proximité

Alt. 843 ft 41.89 °N, 88.48 °W | Updated 5 minutes ago

Ciel dégagé
Ciel dégagé
42.7 ° F
Paraît 43 ° F
N
0.0
Vent Variable Vent de NNE
Gusts 1.0 mph

Aujourd'hui
Haut(e) -- | Bas -- ° F
--% Risque de précip.
Hier
Haut(e) -- | Bas -- ° F
Precip. -- pouce
7:19 AM 5:56 PM
Lune montante, 6% visible
Pression 30.03 pouce
Visibilité 10.0 Miles terrestres
Nuages Ciel dégagé
Refroidissement éolien 43 ° F
Point de rosée 32 ° F
Humidité 67%
Précipitations 0.00 pouce
Profondeur de la couche neigeuse Non disponible.
UV 0 sur 12
Pollen 1.60 sur 12
Ozone Bon
PM2.5 Bon
Flu Activity No Activity
METAR KARR 260752Z AUTO 29006KT 10SM CLR 01/M02 A3002 RMK AO2 SLP167 T00111017

More Conditions Fewer Conditions

Pression 30.03 pouce
Visibilité 10.0 Miles terrestres
Nuages Ciel dégagé
Refroidissement éolien 43 ° F
Point de rosée 32 ° F
Humidité 67%
Précipitations 0.00 pouce
Profondeur de la couche neigeuse Non disponible.
UV 0 sur 12
Pollen 1.60 sur 12
Ozone Bon
PM2.5 Bon
Flu Activity No Activity
METAR KARR 260752Z AUTO 29006KT 10SM CLR 01/M02 A3002 RMK AO2 SLP167 T00111017

More Conditions Fewer Conditions

10-Day Weather Forecast

Almanac

Astronomie

Oct. 26, 2014 Lever Coucher
Temps réel 07:19 CDT 17:56 CDT
Crépuscule civil 06:50 CDT 18:24 CDT
Crépuscule nautique 06:17 CDT 18:57 CDT
Crépuscule astronomique 05:45 CDT 19:29 CDT
Lune 09:58 CDT 20:05 CDT
Durée de lumière visible 11h 34m
Longueur du jour
10h 37m
Tomorrow will be 2m 35s shorter.
Lune montante, 6% of the Moon is Illuminated
Aujourd'hui
Lune montante
Oct 30
Premier quartier
Nov 6
Pleine lune
Nov 14
Dernier quartier
Nov 22
Nouveau

Extrêmes aujourd'hui

State Highs State Lows

Community

WunderPhotos

Upload Photos

1,765,125 Photos téléchargées !

Nearby

Qualité de l'air

  Qualité de l'air Indice de la qualité de l'air Polluant
Hier Moyen
PM2.5
Hier Bon
OZONE
Actuel Bon
PM2.5
Actuel Bon
OZONE
dimanche Bon
PM2.5
lundi Moyen
PM2.5
mardi Bon
PM2.5
mercredi Bon
PM2.5

Épaisseur de neige

Station Depth Altitude
Pas de nouvelles chutes de neige

Activité sismique

Ville Distance Mag. Time & Date
No recent earthquake activity has been reported nearby.
Minimum magnitude displayed is 2.5.

Températures des eaux côtières

Lieu Température
Aucun rapport de station

Stations météo à proximité